createdAt,value
2017-09-05T00:00:07.058Z,17.70
2017-09-05T00:02:34.480Z,17.70
2017-09-05T00:05:01.904Z,17.70
2017-09-05T00:07:29.323Z,17.70
2017-09-05T00:10:00.211Z,17.70
2017-09-05T00:12:42.492Z,17.60
2017-09-05T00:18:13.344Z,17.60
2017-09-05T00:20:43.904Z,17.60
2017-09-05T00:23:11.524Z,17.60
2017-09-05T00:25:38.956Z,17.60
2017-09-05T00:28:06.376Z,17.60
2017-09-05T00:30:34.002Z,17.60
2017-09-05T00:33:01.451Z,17.60
2017-09-05T00:35:28.903Z,17.60
2017-09-05T00:37:56.364Z,17.50
2017-09-05T00:40:23.788Z,17.50
2017-09-05T00:42:51.280Z,17.50
2017-09-05T00:45:18.736Z,17.50
2017-09-05T00:47:46.156Z,17.50
2017-09-05T00:50:13.588Z,17.50
2017-09-05T00:52:41.008Z,17.50
2017-09-05T00:55:08.435Z,17.40
2017-09-05T00:57:35.988Z,17.40
2017-09-05T01:00:03.416Z,17.40
2017-09-05T01:02:30.845Z,17.40
2017-09-05T01:04:58.289Z,17.30
2017-09-05T01:07:25.712Z,17.30
2017-09-05T01:09:53.167Z,17.20
2017-09-05T01:12:20.752Z,17.00
2017-09-05T01:14:48.176Z,17.00
2017-09-05T01:17:15.611Z,16.90
2017-09-05T01:19:43.036Z,17.00
2017-09-05T01:22:10.476Z,17.00
2017-09-05T01:24:37.904Z,17.00
2017-09-05T01:27:05.500Z,17.00
2017-09-05T01:29:32.904Z,17.00
2017-09-05T01:32:00.400Z,16.90
2017-09-05T01:34:27.900Z,16.80
2017-09-05T01:36:55.624Z,16.80
2017-09-05T01:39:23.388Z,16.70
2017-09-05T01:41:50.813Z,16.80
2017-09-05T01:44:18.245Z,16.80
2017-09-05T01:46:45.665Z,16.80
2017-09-05T01:49:13.213Z,16.80
2017-09-05T01:51:40.637Z,16.80
2017-09-05T01:54:08.120Z,16.80
2017-09-05T01:56:35.574Z,16.80
2017-09-05T01:59:02.996Z,16.80
2017-09-05T02:01:30.448Z,16.70
2017-09-05T02:03:57.943Z,16.80
2017-09-05T02:06:25.389Z,16.80
2017-09-05T02:08:52.861Z,16.80
2017-09-05T02:11:20.297Z,16.80
2017-09-05T02:13:47.720Z,16.80
2017-09-05T02:16:15.232Z,16.80
2017-09-05T02:18:42.876Z,16.80
2017-09-05T02:21:10.317Z,16.80
2017-09-05T02:23:37.905Z,16.80
2017-09-05T02:26:05.364Z,16.70
2017-09-05T02:28:32.812Z,16.70
2017-09-05T02:31:00.281Z,16.70
2017-09-05T02:33:27.722Z,16.70
2017-09-05T02:35:55.184Z,16.70
2017-09-05T02:38:22.624Z,16.70
2017-09-05T02:40:50.109Z,16.70
2017-09-05T02:43:17.740Z,16.60
2017-09-05T02:45:45.328Z,16.60
2017-09-05T02:48:12.760Z,16.60
2017-09-05T02:50:40.188Z,16.60
2017-09-05T02:53:07.694Z,16.60
2017-09-05T02:55:35.147Z,16.50
2017-09-05T02:58:02.580Z,16.50
2017-09-05T03:00:30.004Z,16.50
2017-09-05T03:02:57.514Z,16.50
2017-09-05T03:05:24.996Z,16.50
2017-09-05T03:07:52.613Z,16.50
2017-09-05T03:10:20.189Z,16.50
2017-09-05T03:12:47.647Z,16.50
2017-09-05T03:15:15.071Z,16.50
2017-09-05T03:17:42.505Z,16.50
2017-09-05T03:20:10.012Z,16.40
2017-09-05T03:22:37.478Z,16.50
2017-09-05T03:25:04.921Z,16.50
2017-09-05T03:27:32.376Z,16.40
2017-09-05T03:29:59.812Z,16.40
2017-09-05T03:32:27.236Z,16.40
2017-09-05T03:34:54.672Z,16.40
2017-09-05T03:37:22.204Z,16.40
2017-09-05T03:39:49.665Z,16.30
2017-09-05T03:42:17.421Z,16.30
2017-09-05T03:44:44.878Z,16.30
2017-09-05T03:47:12.334Z,16.40
2017-09-05T03:49:39.791Z,16.30
2017-09-05T03:52:07.211Z,16.30
2017-09-05T03:54:34.704Z,16.30
2017-09-05T03:57:02.160Z,16.20
2017-09-05T03:59:29.626Z,16.20
2017-09-05T04:01:57.048Z,16.20
2017-09-05T04:04:24.532Z,16.20
2017-09-05T04:06:51.991Z,16.20
2017-09-05T04:09:19.444Z,16.20
2017-09-05T04:11:46.882Z,16.20
2017-09-05T04:14:14.327Z,16.20
2017-09-05T04:16:41.740Z,16.10
2017-09-05T04:19:09.280Z,16.10
2017-09-05T04:21:36.732Z,16.10
2017-09-05T04:24:04.379Z,16.10
2017-09-05T04:26:31.961Z,16.10
2017-09-05T04:28:59.397Z,16.10
2017-09-05T04:31:26.829Z,16.10
2017-09-05T04:33:54.316Z,16.10
2017-09-05T04:36:21.762Z,16.10
2017-09-05T04:38:49.195Z,16.10
2017-09-05T04:41:16.628Z,16.00
2017-09-05T04:43:44.056Z,16.00
2017-09-05T04:46:11.612Z,16.00
2017-09-05T04:48:39.029Z,16.00
2017-09-05T04:51:06.521Z,16.10
2017-09-05T04:53:34.160Z,16.00
2017-09-05T04:56:01.641Z,16.00
2017-09-05T04:58:29.073Z,16.00
2017-09-05T05:00:56.547Z,16.00
2017-09-05T05:03:24.025Z,16.00
2017-09-05T05:05:51.562Z,16.00
2017-09-05T05:08:19.185Z,16.00
2017-09-05T05:10:46.781Z,16.00
2017-09-05T05:13:14.516Z,16.00
2017-09-05T05:15:41.997Z,16.00
2017-09-05T05:18:09.633Z,16.00
2017-09-05T05:20:37.140Z,16.10
2017-09-05T05:23:04.673Z,16.10
2017-09-05T05:25:32.112Z,16.10
2017-09-05T05:27:59.536Z,16.10
2017-09-05T05:30:26.972Z,16.10
2017-09-05T05:32:54.496Z,16.10
2017-09-05T05:35:21.957Z,16.10
2017-09-05T05:37:49.721Z,16.20
2017-09-05T05:40:17.485Z,16.20
2017-09-05T05:42:45.117Z,16.20
2017-09-05T05:45:12.615Z,16.20
2017-09-05T05:47:40.152Z,16.20
2017-09-05T05:50:07.610Z,16.30
2017-09-05T05:52:35.093Z,16.30
2017-09-05T05:55:02.532Z,16.30
2017-09-05T05:57:29.973Z,16.30
2017-09-05T05:59:57.409Z,16.30
2017-09-05T06:02:24.898Z,16.30
2017-09-05T06:04:52.325Z,16.30
2017-09-05T06:07:19.763Z,16.40
2017-09-05T06:09:47.265Z,16.40
2017-09-05T06:12:14.901Z,16.40
2017-09-05T06:14:42.388Z,16.40
2017-09-05T06:17:09.936Z,16.40
2017-09-05T06:19:37.364Z,16.40
2017-09-05T06:22:04.860Z,16.50
2017-09-05T06:24:32.620Z,16.40
2017-09-05T06:27:00.427Z,16.50
2017-09-05T06:29:28.145Z,16.50
2017-09-05T06:31:55.600Z,16.50
2017-09-05T06:34:23.237Z,16.50
2017-09-05T06:36:50.728Z,16.60
2017-09-05T06:39:18.279Z,16.60
2017-09-05T06:41:45.728Z,16.60
2017-09-05T06:44:13.355Z,16.50
2017-09-05T06:46:40.870Z,16.60
2017-09-05T06:49:08.409Z,16.60
2017-09-05T06:51:35.861Z,16.60
2017-09-05T06:54:03.520Z,16.60
2017-09-05T06:56:31.880Z,16.70
2017-09-05T06:58:59.348Z,16.70
2017-09-05T07:01:26.828Z,16.70
2017-09-05T07:03:54.280Z,16.70
2017-09-05T07:06:21.727Z,16.80
2017-09-05T07:08:49.178Z,16.80
2017-09-05T07:11:16.752Z,16.90
2017-09-05T07:13:44.377Z,16.90
2017-09-05T07:16:11.956Z,17.00
2017-09-05T07:18:39.387Z,17.00
2017-09-05T07:21:06.812Z,17.00
2017-09-05T07:23:34.325Z,17.00
2017-09-05T07:26:01.744Z,17.10
2017-09-05T07:28:29.184Z,17.10
2017-09-05T07:30:56.620Z,17.10
2017-09-05T07:33:24.041Z,17.10
2017-09-05T07:35:51.508Z,17.20
2017-09-05T07:38:18.948Z,17.20
2017-09-05T07:40:46.428Z,17.30
2017-09-05T07:43:13.903Z,17.30
2017-09-05T07:45:41.327Z,17.40
2017-09-05T07:48:08.765Z,17.50
2017-09-05T07:50:36.348Z,17.60
2017-09-05T07:53:03.813Z,17.70
2017-09-05T07:55:31.440Z,17.70
2017-09-05T07:57:59.028Z,17.70
2017-09-05T08:00:26.482Z,17.70
2017-09-05T08:02:53.911Z,17.70
2017-09-05T08:05:21.353Z,17.70
2017-09-05T08:07:48.775Z,17.80
2017-09-05T08:10:16.212Z,17.80
2017-09-05T08:12:43.684Z,17.90
2017-09-05T08:15:11.277Z,17.90
2017-09-05T08:17:38.854Z,18.00
2017-09-05T08:20:06.352Z,18.00
2017-09-05T08:22:35.016Z,18.00
2017-09-05T08:25:02.521Z,18.10
2017-09-05T08:27:29.948Z,18.20
2017-09-05T08:29:57.496Z,18.20
2017-09-05T08:32:24.922Z,18.30
2017-09-05T08:34:52.363Z,18.30
2017-09-05T08:37:19.784Z,18.40
2017-09-05T08:39:47.233Z,18.50
2017-09-05T08:42:14.783Z,18.50
2017-09-05T08:44:42.533Z,18.50
2017-09-05T08:47:09.994Z,18.50
2017-09-05T08:49:37.773Z,18.60
2017-09-05T08:52:05.214Z,18.60
2017-09-05T08:54:32.639Z,18.60
2017-09-05T08:57:00.132Z,18.80
2017-09-05T08:59:27.554Z,18.90
2017-09-05T09:01:54.992Z,18.80
2017-09-05T09:04:22.488Z,18.90
2017-09-05T09:06:49.953Z,19.00
2017-09-05T09:09:17.380Z,19.00
2017-09-05T09:11:44.861Z,19.10
2017-09-05T09:14:12.292Z,19.10
2017-09-05T09:16:39.773Z,19.20
2017-09-05T09:19:07.203Z,19.40
2017-09-05T09:21:34.630Z,19.40
2017-09-05T09:24:02.054Z,19.40
2017-09-05T09:26:29.601Z,19.40
2017-09-05T09:28:57.063Z,19.50
2017-09-05T09:31:24.505Z,19.60
2017-09-05T09:33:51.959Z,19.60
2017-09-05T09:36:19.429Z,19.70
2017-09-05T09:38:46.875Z,19.70
2017-09-05T09:41:14.311Z,19.80
2017-09-05T09:43:41.810Z,19.90
2017-09-05T09:46:09.446Z,20.00
2017-09-05T09:48:36.879Z,20.10
2017-09-05T09:51:04.468Z,20.20
2017-09-05T09:53:31.928Z,20.40
2017-09-05T09:55:59.341Z,20.60
2017-09-05T09:58:26.776Z,20.70
2017-09-05T10:00:54.196Z,20.90
2017-09-05T10:03:21.761Z,20.90
2017-09-05T10:05:49.202Z,20.90
2017-09-05T10:08:16.632Z,21.00
2017-09-05T10:10:44.132Z,21.10
2017-09-05T10:13:11.568Z,21.00
2017-09-05T10:15:39.001Z,21.00
2017-09-05T10:18:06.432Z,21.00
2017-09-05T10:20:33.945Z,21.10
2017-09-05T10:23:01.401Z,21.30
2017-09-05T10:25:28.824Z,21.20
2017-09-05T10:27:56.328Z,21.40
2017-09-05T10:30:23.970Z,21.40
2017-09-05T10:32:51.540Z,21.50
2017-09-05T10:35:18.995Z,21.70
2017-09-05T10:37:46.754Z,21.90
2017-09-05T10:40:14.208Z,21.90
2017-09-05T10:42:41.672Z,21.90
2017-09-05T10:45:09.120Z,22.00
2017-09-05T10:47:36.587Z,22.00
2017-09-05T10:50:04.029Z,22.40
2017-09-05T10:52:31.493Z,22.40
2017-09-05T10:54:58.916Z,22.50
2017-09-05T10:57:26.468Z,23.00
2017-09-05T10:59:53.993Z,22.90
2017-09-05T11:02:21.625Z,22.80
2017-09-05T11:04:49.063Z,23.00
2017-09-05T11:07:16.552Z,23.50
2017-09-05T11:09:44.296Z,23.50
2017-09-05T11:12:11.734Z,23.40
2017-09-05T11:14:39.216Z,23.50
2017-09-05T11:17:06.672Z,23.40
2017-09-05T11:19:34.122Z,23.40
2017-09-05T11:22:01.536Z,23.50
2017-09-05T11:24:28.976Z,23.50
2017-09-05T11:26:56.400Z,23.70
2017-09-05T11:29:23.954Z,24.20
2017-09-05T11:31:51.716Z,24.60
2017-09-05T11:34:19.352Z,24.40
2017-09-05T11:36:46.922Z,24.20
2017-09-05T11:39:14.361Z,24.10
2017-09-05T11:41:41.842Z,24.00
2017-09-05T11:44:09.273Z,24.20
2017-09-05T11:46:36.699Z,24.40
2017-09-05T11:49:04.228Z,24.60
2017-09-05T11:51:31.674Z,24.80
2017-09-05T11:53:59.321Z,25.10
2017-09-05T11:56:26.809Z,25.10
2017-09-05T11:58:54.345Z,25.00
2017-09-05T12:01:21.770Z,24.80
2017-09-05T12:03:49.255Z,24.60
2017-09-05T12:06:16.708Z,24.60
2017-09-05T12:08:44.133Z,24.60
2017-09-05T12:11:11.632Z,24.50
2017-09-05T12:13:39.093Z,24.50
2017-09-05T12:16:06.848Z,24.60
2017-09-05T12:18:34.314Z,24.60
2017-09-05T12:21:01.759Z,24.80
2017-09-05T12:23:29.177Z,24.90
2017-09-05T12:25:56.621Z,24.90
2017-09-05T12:28:24.045Z,24.90
2017-09-05T12:30:51.492Z,24.80
2017-09-05T12:33:19.053Z,24.80
2017-09-05T12:35:46.488Z,24.70
2017-09-05T12:38:13.928Z,24.80
2017-09-05T12:40:41.340Z,24.90
2017-09-05T12:43:08.867Z,25.20
2017-09-05T12:45:36.318Z,25.40
2017-09-05T12:48:03.795Z,25.70
2017-09-05T12:50:31.225Z,26.00
2017-09-05T12:52:58.657Z,26.20
2017-09-05T12:55:26.142Z,26.10
2017-09-05T12:57:53.577Z,26.10
2017-09-05T13:00:21.012Z,26.00
2017-09-05T13:02:48.516Z,26.00
2017-09-05T13:05:16.294Z,25.90
2017-09-05T13:07:43.735Z,25.80
2017-09-05T13:10:11.498Z,25.70
2017-09-05T13:12:38.926Z,25.70
2017-09-05T13:15:06.357Z,25.60
2017-09-05T13:17:33.867Z,25.60
2017-09-05T13:20:01.280Z,25.60
2017-09-05T13:22:28.777Z,25.60
2017-09-05T13:24:56.207Z,25.50
2017-09-05T13:27:23.697Z,25.50
2017-09-05T13:29:51.457Z,25.40
2017-09-05T13:32:18.897Z,25.40
2017-09-05T13:34:46.364Z,25.50
2017-09-05T13:37:13.811Z,25.50
2017-09-05T13:39:41.277Z,25.60
2017-09-05T13:42:08.716Z,25.50
2017-09-05T13:44:36.136Z,25.60
2017-09-05T13:47:03.692Z,25.60
2017-09-05T13:49:31.283Z,25.50
2017-09-05T13:51:58.797Z,25.50
2017-09-05T13:54:26.219Z,25.50
2017-09-05T13:56:53.776Z,25.50
2017-09-05T13:59:21.216Z,25.60
2017-09-05T14:01:50.911Z,25.70
2017-09-05T14:04:18.357Z,25.90
2017-09-05T14:06:45.822Z,25.60
2017-09-05T14:09:13.521Z,25.60
2017-09-05T14:11:41.154Z,25.80
2017-09-05T14:14:08.703Z,25.70
2017-09-05T14:16:36.201Z,25.70
2017-09-05T14:19:03.961Z,25.70
2017-09-05T14:21:31.722Z,25.50
2017-09-05T14:23:59.361Z,25.60
2017-09-05T14:26:26.807Z,25.60
2017-09-05T14:28:54.405Z,25.60
2017-09-05T14:31:22.027Z,25.70
2017-09-05T14:33:49.612Z,25.60
2017-09-05T14:36:17.042Z,25.60
2017-09-05T14:38:44.467Z,25.70
2017-09-05T14:41:11.896Z,25.70
2017-09-05T14:43:39.335Z,25.90
2017-09-05T14:46:06.942Z,26.00
2017-09-05T14:48:34.670Z,26.00
2017-09-05T14:51:02.122Z,26.20
2017-09-05T14:53:29.599Z,26.40
2017-09-05T14:55:57.209Z,26.50
2017-09-05T14:58:24.804Z,26.80
2017-09-05T15:00:52.560Z,27.20
2017-09-05T15:03:19.990Z,27.40
2017-09-05T15:05:47.469Z,27.40
2017-09-05T15:08:14.893Z,27.10
2017-09-05T15:10:42.393Z,27.00
2017-09-05T15:13:09.867Z,27.00
2017-09-05T15:15:37.471Z,26.70
2017-09-05T15:18:04.988Z,26.70
2017-09-05T15:20:32.424Z,27.10
2017-09-05T15:22:59.969Z,27.50
2017-09-05T15:25:27.400Z,27.50
2017-09-05T15:27:54.884Z,27.60
2017-09-05T15:30:22.336Z,27.60
2017-09-05T15:32:49.757Z,27.30
2017-09-05T15:35:17.260Z,27.10
2017-09-05T15:37:44.719Z,27.00
2017-09-05T15:40:12.470Z,26.40
2017-09-05T15:42:39.892Z,26.20
2017-09-05T15:45:07.381Z,26.00
2017-09-05T15:47:34.825Z,25.80
2017-09-05T15:50:02.233Z,25.70
2017-09-05T15:52:29.756Z,25.70
2017-09-05T15:54:57.197Z,25.60
2017-09-05T15:57:24.608Z,25.50
2017-09-05T15:59:52.136Z,25.40
2017-09-05T16:02:19.576Z,25.30
2017-09-05T16:04:47.036Z,25.30
2017-09-05T16:07:14.458Z,25.20
2017-09-05T16:09:41.892Z,25.10
2017-09-05T16:12:09.396Z,25.00
2017-09-05T16:14:36.865Z,25.00
2017-09-05T16:17:04.511Z,24.90
2017-09-05T16:19:32.086Z,24.90
2017-09-05T16:21:59.516Z,25.00
2017-09-05T16:24:27.001Z,25.00
2017-09-05T16:26:54.461Z,24.90
2017-09-05T16:29:21.904Z,24.90
2017-09-05T16:31:49.332Z,24.80
2017-09-05T16:34:16.762Z,24.80
2017-09-05T16:36:44.191Z,24.80
2017-09-05T16:39:11.635Z,24.90
2017-09-05T16:41:39.053Z,24.80
2017-09-05T16:44:06.498Z,24.60
2017-09-05T16:46:33.948Z,24.70
2017-09-05T16:49:01.381Z,24.60
2017-09-05T16:51:28.809Z,24.70
2017-09-05T16:53:56.232Z,24.60
2017-09-05T16:56:23.683Z,24.50
2017-09-05T16:58:51.321Z,24.50
2017-09-05T17:01:18.755Z,24.60
2017-09-05T17:03:46.328Z,24.60
2017-09-05T17:06:13.943Z,24.60
2017-09-05T17:08:41.504Z,24.50
2017-09-05T17:11:08.965Z,24.50
2017-09-05T17:13:36.519Z,24.40
2017-09-05T17:16:03.952Z,24.50
2017-09-05T17:18:31.592Z,24.50
2017-09-05T17:20:59.100Z,24.50
2017-09-05T17:23:26.741Z,24.50
2017-09-05T17:25:54.261Z,24.50
2017-09-05T17:28:21.784Z,24.50
2017-09-05T17:30:49.407Z,24.50
2017-09-05T17:33:16.871Z,24.50
2017-09-05T17:35:44.322Z,24.40
2017-09-05T17:38:11.906Z,24.40
2017-09-05T17:40:39.535Z,24.40
2017-09-05T17:43:07.105Z,24.40
2017-09-05T17:45:34.579Z,24.40
2017-09-05T17:48:02.033Z,24.40
2017-09-05T17:50:29.518Z,24.30
2017-09-05T17:52:57.137Z,24.30
2017-09-05T17:55:24.621Z,24.20
2017-09-05T17:57:52.176Z,24.20
2017-09-05T18:00:19.621Z,24.20
2017-09-05T18:02:47.076Z,24.20
2017-09-05T18:05:14.506Z,24.20
2017-09-05T18:07:41.996Z,24.10
2017-09-05T18:10:09.417Z,24.10
2017-09-05T18:12:36.846Z,24.10
2017-09-05T18:15:04.265Z,24.00
2017-09-05T18:17:31.705Z,24.00
2017-09-05T18:19:59.204Z,24.00
2017-09-05T18:22:26.630Z,24.00
2017-09-05T18:24:54.064Z,23.90
2017-09-05T18:27:21.644Z,23.90
2017-09-05T18:29:49.082Z,23.90
2017-09-05T18:32:16.821Z,23.80
2017-09-05T18:34:44.242Z,23.80
2017-09-05T18:37:11.684Z,23.80
2017-09-05T18:39:39.131Z,23.70
2017-09-05T18:42:06.693Z,23.70
2017-09-05T18:44:34.342Z,23.50
2017-09-05T18:47:01.812Z,23.60
2017-09-05T18:49:29.367Z,23.60
2017-09-05T18:51:56.780Z,23.60
2017-09-05T18:54:24.304Z,23.60
2017-09-05T18:56:51.716Z,23.50
2017-09-05T18:59:19.148Z,23.40
2017-09-05T19:01:46.562Z,23.50
2017-09-05T19:04:14.009Z,23.30
2017-09-05T19:06:41.561Z,23.20
2017-09-05T19:09:09.191Z,23.00
2017-09-05T19:11:36.708Z,23.00
2017-09-05T19:14:04.230Z,23.00
2017-09-05T19:16:31.661Z,22.90
2017-09-05T19:18:59.085Z,23.00
2017-09-05T19:21:26.508Z,23.10
2017-09-05T19:23:53.953Z,23.10
2017-09-05T19:26:21.376Z,23.10
2017-09-05T19:28:48.887Z,23.10
2017-09-05T19:31:16.471Z,23.10
2017-09-05T19:33:43.899Z,23.10
2017-09-05T19:36:11.337Z,23.10
2017-09-05T19:38:38.798Z,23.10
2017-09-05T19:41:06.237Z,23.10
2017-09-05T19:43:33.721Z,23.00
2017-09-05T19:46:01.474Z,23.00
2017-09-05T19:48:29.245Z,23.00
2017-09-05T19:50:56.882Z,23.00
2017-09-05T19:53:24.364Z,23.00
2017-09-05T19:55:51.924Z,22.80
2017-09-05T19:58:19.541Z,22.80
2017-09-05T20:00:47.025Z,22.90
2017-09-05T20:03:14.589Z,22.80
2017-09-05T20:05:42.021Z,22.90
2017-09-05T20:08:09.444Z,22.80
2017-09-05T20:10:36.952Z,22.80
2017-09-05T20:13:04.383Z,22.70
2017-09-05T20:15:31.816Z,22.60
2017-09-05T20:17:59.241Z,22.70
2017-09-05T20:20:26.671Z,22.70
2017-09-05T20:22:54.088Z,22.60
2017-09-05T20:25:21.531Z,22.60
2017-09-05T20:27:48.928Z,22.60
2017-09-05T20:30:16.624Z,22.70
2017-09-05T20:32:44.025Z,22.70
2017-09-05T20:35:11.516Z,22.70
2017-09-05T20:37:38.928Z,22.60
2017-09-05T20:40:06.426Z,22.60
2017-09-05T20:42:33.853Z,22.60
2017-09-05T20:45:01.284Z,22.60
2017-09-05T20:47:28.709Z,22.60
2017-09-05T20:49:56.192Z,22.60
2017-09-05T20:52:23.621Z,22.60
2017-09-05T20:54:51.173Z,22.60
2017-09-05T20:57:18.624Z,22.60
2017-09-05T20:59:46.053Z,22.60
2017-09-05T21:02:13.538Z,22.50
2017-09-05T21:04:40.996Z,22.50
2017-09-05T21:07:08.429Z,22.50
2017-09-05T21:09:35.849Z,22.40
2017-09-05T21:12:03.360Z,22.40
2017-09-05T21:14:30.812Z,22.40
2017-09-05T21:16:58.252Z,22.40
2017-09-05T21:19:25.685Z,22.40
2017-09-05T21:21:53.184Z,22.40
2017-09-05T21:24:20.608Z,22.40
2017-09-05T21:26:48.097Z,22.40
2017-09-05T21:29:15.562Z,22.40
2017-09-05T21:31:42.993Z,22.40
2017-09-05T21:34:10.481Z,22.40
2017-09-05T21:36:38.233Z,22.40
2017-09-05T21:39:05.644Z,22.40
2017-09-05T21:41:33.141Z,22.30
2017-09-05T21:44:00.560Z,22.30
2017-09-05T21:46:28.049Z,22.30
2017-09-05T21:48:55.517Z,22.30
2017-09-05T21:51:22.942Z,22.30
2017-09-05T21:53:50.431Z,22.30
2017-09-05T21:56:17.887Z,22.30
2017-09-05T21:58:45.304Z,22.20
2017-09-05T22:01:12.737Z,22.20
2017-09-05T22:03:40.156Z,22.10
2017-09-05T22:06:07.597Z,22.00
2017-09-05T22:08:35.094Z,22.00
2017-09-05T22:11:02.520Z,21.90
2017-09-05T22:13:29.978Z,21.90
2017-09-05T22:15:57.429Z,21.80
2017-09-05T22:18:30.479Z,21.80
2017-09-05T22:21:03.509Z,21.80
2017-09-05T22:23:30.969Z,21.90
2017-09-05T22:26:03.984Z,21.80
2017-09-05T22:28:37.316Z,21.70
2017-09-05T22:31:04.995Z,21.70
2017-09-05T22:33:32.454Z,21.70
2017-09-05T22:35:59.912Z,21.70
2017-09-05T22:38:27.377Z,21.70
2017-09-05T22:40:54.824Z,21.60
2017-09-05T22:43:22.280Z,21.60
2017-09-05T22:45:49.700Z,21.60
2017-09-05T22:48:17.128Z,21.50
2017-09-05T22:50:44.648Z,21.50
2017-09-05T22:53:12.081Z,21.50
2017-09-05T22:55:39.509Z,21.40
2017-09-05T22:58:06.940Z,21.40
2017-09-05T23:00:34.476Z,21.30
2017-09-05T23:03:01.925Z,21.30
2017-09-05T23:05:29.388Z,21.30
2017-09-05T23:07:56.822Z,21.30
2017-09-05T23:10:24.237Z,21.30
2017-09-05T23:12:51.765Z,21.30
2017-09-05T23:15:19.216Z,21.20
2017-09-05T23:17:46.664Z,21.20
2017-09-05T23:20:14.076Z,21.10
2017-09-05T23:22:41.509Z,21.00
2017-09-05T23:25:08.943Z,21.10
2017-09-05T23:27:36.412Z,21.00
2017-09-05T23:30:03.969Z,20.90
2017-09-05T23:32:31.409Z,20.90
2017-09-05T23:34:58.841Z,20.90
2017-09-05T23:37:26.325Z,21.00
2017-09-05T23:39:53.773Z,20.90
2017-09-05T23:42:21.227Z,20.90
2017-09-05T23:44:48.690Z,20.90
2017-09-05T23:47:16.112Z,20.80
2017-09-05T23:49:43.613Z,20.70
2017-09-05T23:52:11.058Z,20.70
2017-09-05T23:54:38.520Z,20.60
2017-09-05T23:57:05.972Z,20.60
2017-09-05T23:59:33.418Z,20.50
